Terminal Aerodrome Forecast
Issued by NWS Tuscon, AZ

Home | Current Version | Previous Version | Text Only | Print | Product List | Glossary On
Versions: 1 2 3 4 5 6 7 8 9 10 11 12 13
000
FTUS45 KTWC 170520
TAFDUG
TAF
KDUG 170520Z 1706/1806 14007KT P6SM BKN050 OVC070
     FM170900 15008KT P6SM VCSH OVC070
     FM171200 14010KT P6SM -SHRA OVC050
     FM171600 16011KT P6SM -SHRA SCT035 OVC050=

USA.gov is the U.S. government's official web portal to all federal, state and local government web resources and services.